createdAt,value
2023-03-14T00:00:15.937Z,1.80
2023-03-14T00:03:04.511Z,1.70
2023-03-14T00:05:32.395Z,7.10
2023-03-14T00:08:00.138Z,4.70
2023-03-14T00:10:29.621Z,3.40
2023-03-14T00:12:58.550Z,5.00
2023-03-14T00:15:29.027Z,5.80
2023-03-14T00:17:57.224Z,6.70
2023-03-14T00:20:26.142Z,2.90
2023-03-14T00:22:53.944Z,3.30
2023-03-14T00:25:22.013Z,3.90
2023-03-14T00:27:53.420Z,1.90
2023-03-14T00:30:21.397Z,1.90
2023-03-14T00:32:49.145Z,1.30
2023-03-14T00:35:18.183Z,1.00
2023-03-14T00:37:46.028Z,1.90
2023-03-14T00:40:14.711Z,1.60
2023-03-14T00:42:42.480Z,1.40
2023-03-14T00:45:12.096Z,1.50
2023-03-14T00:47:40.504Z,1.40
2023-03-14T00:50:09.773Z,1.70
2023-03-14T00:52:38.899Z,1.40
2023-03-14T00:55:08.461Z,1.90
2023-03-14T00:57:36.369Z,3.00
2023-03-14T01:00:09.050Z,1.50
2023-03-14T01:02:39.284Z,1.50
2023-03-14T01:05:08.852Z,1.30
2023-03-14T01:07:37.609Z,0.80
2023-03-14T01:10:07.581Z,1.40
2023-03-14T01:12:36.659Z,1.50
2023-03-14T01:15:05.435Z,1.20
2023-03-14T01:17:33.618Z,1.10
2023-03-14T01:20:02.110Z,1.20
2023-03-14T01:22:30.037Z,1.20
2023-03-14T01:24:59.325Z,1.20
2023-03-14T01:27:27.343Z,1.10
2023-03-14T01:29:55.454Z,1.50
2023-03-14T01:32:26.562Z,1.40
2023-03-14T01:34:55.156Z,1.00
2023-03-14T01:37:23.080Z,1.20
2023-03-14T01:39:51.477Z,1.00
2023-03-14T01:42:19.349Z,1.40
2023-03-14T01:45:02.580Z,1.80
2023-03-14T01:47:30.531Z,1.60
2023-03-14T01:50:11.801Z,1.10
2023-03-14T01:52:48.662Z,1.50
2023-03-14T01:55:22.595Z,1.60
2023-03-14T01:58:08.936Z,1.00
2023-03-14T02:00:38.296Z,1.20
2023-03-14T02:03:13.610Z,0.50
2023-03-14T02:05:45.026Z,1.00
2023-03-14T02:08:18.083Z,1.00
2023-03-14T02:10:49.984Z,1.10
2023-03-14T02:13:22.431Z,1.10
2023-03-14T02:15:52.411Z,0.70
2023-03-14T02:18:20.658Z,0.90
2023-03-14T02:21:06.983Z,0.80
2023-03-14T02:24:04.323Z,1.00
2023-03-14T02:26:46.380Z,0.80
2023-03-14T02:29:14.255Z,1.10
2023-03-14T02:31:42.249Z,1.40
2023-03-14T02:34:10.327Z,1.10
2023-03-14T02:36:38.792Z,1.20
2023-03-14T02:39:22.802Z,1.30
2023-03-14T02:41:52.008Z,1.20
2023-03-14T02:44:19.854Z,1.10
2023-03-14T02:46:50.459Z,0.80
2023-03-14T02:49:19.525Z,1.50
2023-03-14T02:51:48.184Z,0.80
2023-03-14T02:54:17.801Z,0.70
2023-03-14T02:56:45.612Z,1.20
2023-03-14T02:59:13.350Z,1.00
2023-03-14T03:01:41.847Z,1.30
2023-03-14T03:04:09.805Z,1.20
2023-03-14T03:06:38.090Z,1.20
2023-03-14T03:09:07.464Z,1.20
2023-03-14T03:11:35.253Z,1.20
2023-03-14T03:14:03.133Z,1.10
2023-03-14T03:16:31.330Z,0.90
2023-03-14T03:18:59.085Z,1.10
2023-03-14T03:21:27.113Z,1.20
2023-03-14T03:23:56.675Z,1.50
2023-03-14T03:26:25.665Z,5.30
2023-03-14T03:28:54.469Z,1.20
2023-03-14T03:31:24.569Z,1.30
2023-03-14T03:33:52.392Z,1.20
2023-03-14T03:36:26.370Z,1.60
2023-03-14T03:38:55.544Z,1.90
2023-03-14T03:41:23.426Z,1.10
2023-03-14T03:43:51.810Z,1.50
2023-03-14T03:46:20.224Z,1.40
2023-03-14T03:48:48.158Z,1.40
2023-03-14T03:51:17.381Z,1.70
2023-03-14T03:53:45.845Z,1.90
2023-03-14T03:56:14.569Z,1.70
2023-03-14T03:58:43.162Z,1.40
2023-03-14T04:01:13.418Z,1.00
2023-03-14T04:03:41.557Z,1.20
2023-03-14T04:06:14.575Z,1.20
2023-03-14T04:08:42.503Z,1.30
2023-03-14T04:11:11.182Z,1.80
2023-03-14T04:13:38.960Z,10.10
2023-03-14T04:16:19.487Z,9.00
2023-03-14T04:18:48.756Z,4.60
2023-03-14T04:21:17.480Z,2.30
2023-03-14T04:23:45.795Z,1.70
2023-03-14T04:26:13.630Z,1.50
2023-03-14T04:28:43.841Z,1.40
2023-03-14T04:31:18.859Z,1.50
2023-03-14T04:33:46.816Z,1.70
2023-03-14T04:36:15.529Z,1.90
2023-03-14T04:38:43.688Z,1.40
2023-03-14T04:41:11.548Z,1.30
2023-03-14T04:43:39.416Z,1.30
2023-03-14T04:46:08.025Z,1.40
2023-03-14T04:48:35.815Z,1.00
2023-03-14T04:51:06.431Z,1.60
2023-03-14T04:53:38.284Z,1.20
2023-03-14T04:56:07.237Z,1.30
2023-03-14T04:58:34.994Z,1.50
2023-03-14T05:01:07.379Z,0.90
2023-03-14T05:03:38.273Z,1.40
2023-03-14T05:06:06.941Z,1.30
2023-03-14T05:08:34.888Z,1.20
2023-03-14T05:11:04.194Z,0.90
2023-03-14T05:13:31.915Z,1.00
2023-03-14T05:16:10.758Z,1.30
2023-03-14T05:18:39.877Z,1.40
2023-03-14T05:21:09.440Z,1.40
2023-03-14T05:23:37.935Z,1.70
2023-03-14T05:26:06.275Z,1.70
2023-03-14T05:28:34.314Z,1.40
2023-03-14T05:31:03.694Z,1.20
2023-03-14T05:33:31.348Z,1.20
2023-03-14T05:36:01.410Z,1.50
2023-03-14T05:38:30.477Z,1.40
2023-03-14T05:40:58.600Z,1.60
2023-03-14T05:43:27.499Z,1.70
2023-03-14T05:45:55.782Z,1.40
2023-03-14T05:48:24.711Z,1.20
2023-03-14T05:51:00.334Z,1.20
2023-03-14T05:53:29.959Z,1.60
2023-03-14T05:55:59.532Z,1.60
2023-03-14T05:58:27.849Z,1.70
2023-03-14T06:00:58.395Z,1.10
2023-03-14T06:03:26.133Z,1.10
2023-03-14T06:05:54.905Z,1.70
2023-03-14T06:08:24.301Z,1.90
2023-03-14T06:10:53.378Z,2.30
2023-03-14T06:13:22.031Z,2.20
2023-03-14T06:15:50.155Z,1.50
2023-03-14T06:18:17.869Z,1.20
2023-03-14T06:20:45.664Z,1.20
2023-03-14T06:23:14.702Z,1.60
2023-03-14T06:25:42.550Z,1.40
2023-03-14T06:28:10.443Z,1.40
2023-03-14T06:30:38.323Z,1.30
2023-03-14T06:33:06.327Z,0.90
2023-03-14T06:35:35.209Z,0.90
2023-03-14T06:38:06.690Z,1.00
2023-03-14T06:40:35.386Z,1.10
2023-03-14T06:43:04.770Z,1.10
2023-03-14T06:45:33.692Z,1.40
2023-03-14T06:48:03.221Z,1.10
2023-03-14T06:50:31.356Z,0.90
2023-03-14T06:52:59.217Z,1.20
2023-03-14T06:55:27.332Z,0.90
2023-03-14T06:57:55.498Z,1.00
2023-03-14T07:00:27.144Z,1.40
2023-03-14T07:02:56.132Z,0.90
2023-03-14T07:05:25.024Z,0.90
2023-03-14T07:07:52.958Z,0.90
2023-03-14T07:10:23.904Z,0.70
2023-03-14T07:12:54.891Z,1.20
2023-03-14T07:15:23.395Z,1.80
2023-03-14T07:17:51.469Z,1.20
2023-03-14T07:20:20.306Z,2.30
2023-03-14T07:22:51.736Z,1.30
2023-03-14T07:25:19.594Z,1.50
2023-03-14T07:27:51.372Z,0.80
2023-03-14T07:30:19.240Z,1.20
2023-03-14T07:32:47.023Z,1.10
2023-03-14T07:35:15.238Z,1.30
2023-03-14T07:37:44.132Z,1.20
2023-03-14T07:40:16.259Z,1.00
2023-03-14T07:42:44.563Z,0.70
2023-03-14T07:45:13.917Z,0.80
2023-03-14T07:47:42.486Z,1.00
2023-03-14T07:50:11.418Z,1.00
2023-03-14T07:52:39.149Z,1.20
2023-03-14T07:55:07.761Z,1.30
2023-03-14T07:57:35.558Z,1.40
2023-03-14T08:00:06.895Z,1.00
2023-03-14T08:02:34.674Z,2.10
2023-03-14T08:05:06.327Z,1.20
2023-03-14T08:07:34.848Z,1.70
2023-03-14T08:10:05.390Z,1.80
2023-03-14T08:12:33.300Z,1.70
2023-03-14T08:15:01.389Z,1.20
2023-03-14T08:17:29.633Z,1.20
2023-03-14T08:19:58.721Z,1.20
2023-03-14T08:22:27.760Z,0.80
2023-03-14T08:24:55.525Z,1.40
2023-03-14T08:27:24.396Z,1.40
2023-03-14T08:29:52.349Z,1.10
2023-03-14T08:32:22.697Z,1.30
2023-03-14T08:34:51.001Z,1.30
2023-03-14T08:37:26.675Z,1.40
2023-03-14T08:39:55.326Z,1.20
2023-03-14T08:42:24.056Z,1.10
2023-03-14T08:44:53.395Z,1.70
2023-03-14T08:47:21.795Z,1.60
2023-03-14T08:49:51.557Z,1.50
2023-03-14T08:52:19.478Z,1.20
2023-03-14T08:54:50.616Z,1.30
2023-03-14T08:57:18.361Z,1.20
2023-03-14T08:59:46.232Z,1.00
2023-03-14T09:02:14.562Z,0.90
2023-03-14T09:04:42.614Z,1.20
2023-03-14T09:07:12.578Z,1.50
2023-03-14T09:09:43.014Z,1.20
2023-03-14T09:12:11.486Z,1.30
2023-03-14T09:14:39.895Z,1.20
2023-03-14T09:17:08.502Z,1.00
2023-03-14T09:19:38.020Z,0.90
2023-03-14T09:22:06.356Z,1.00
2023-03-14T09:24:37.083Z,0.70
2023-03-14T09:27:04.832Z,0.80
2023-03-14T09:29:32.523Z,1.50
2023-03-14T09:32:01.322Z,1.20
2023-03-14T09:34:29.156Z,1.30
2023-03-14T09:36:58.337Z,1.60
2023-03-14T09:39:26.617Z,1.00
2023-03-14T09:42:01.280Z,0.80
2023-03-14T09:44:37.192Z,0.80
2023-03-14T09:47:14.455Z,0.90
2023-03-14T09:49:43.805Z,0.90
2023-03-14T09:52:33.199Z,0.70
2023-03-14T09:55:17.382Z,0.50
2023-03-14T09:57:49.229Z,0.50
2023-03-14T10:00:22.178Z,0.80
2023-03-14T10:03:14.995Z,0.90
2023-03-14T10:05:43.960Z,0.90
2023-03-14T10:08:13.769Z,0.80
2023-03-14T10:10:43.489Z,0.90
2023-03-14T10:13:28.611Z,0.70
2023-03-14T10:16:03.953Z,0.70
2023-03-14T10:18:36.289Z,0.80
2023-03-14T10:21:34.257Z,0.80
2023-03-14T10:24:22.067Z,0.90
2023-03-14T10:26:55.269Z,0.90
2023-03-14T10:29:23.165Z,0.90
2023-03-14T10:32:19.618Z,0.80
2023-03-14T10:35:16.645Z,0.70
2023-03-14T10:38:04.710Z,1.10
2023-03-14T10:40:39.931Z,0.90
2023-03-14T10:43:20.116Z,0.70
2023-03-14T10:46:17.413Z,0.60
2023-03-14T10:48:47.050Z,0.80
2023-03-14T10:51:17.570Z,0.80
2023-03-14T10:54:20.977Z,0.70
2023-03-14T10:57:01.836Z,0.80
2023-03-14T10:59:43.672Z,0.70
2023-03-14T11:02:34.749Z,0.80
2023-03-14T11:05:43.042Z,1.00
2023-03-14T11:08:24.848Z,0.70
2023-03-14T11:11:18.701Z,0.70
2023-03-14T11:14:08.929Z,0.70
2023-03-14T11:16:53.435Z,1.00
2023-03-14T11:20:23.520Z,1.10
2023-03-14T11:23:13.469Z,1.00
2023-03-14T11:26:09.962Z,1.00
2023-03-14T11:28:44.842Z,1.50
2023-03-14T11:31:35.121Z,1.40
2023-03-14T11:34:50.887Z,0.90
2023-03-14T11:37:35.698Z,0.80
2023-03-14T11:40:26.556Z,0.80
2023-03-14T11:43:11.433Z,1.40
2023-03-14T11:45:45.228Z,1.40
2023-03-14T11:48:18.963Z,1.40
2023-03-14T11:50:52.820Z,1.60
2023-03-14T11:54:06.335Z,1.20
2023-03-14T11:56:54.794Z,1.20
2023-03-14T11:59:48.170Z,1.60
2023-03-14T12:02:34.049Z,1.20
2023-03-14T12:05:49.857Z,1.30
2023-03-14T12:08:51.333Z,1.50
2023-03-14T12:11:31.863Z,1.30
2023-03-14T12:14:02.583Z,0.90
2023-03-14T12:16:41.460Z,1.10
2023-03-14T12:19:24.672Z,1.40
2023-03-14T12:22:00.188Z,0.80
2023-03-14T12:24:34.082Z,0.60
2023-03-14T12:27:06.724Z,0.80
2023-03-14T12:30:03.255Z,0.90
2023-03-14T12:32:33.361Z,0.80
2023-03-14T12:35:35.274Z,0.80
2023-03-14T12:38:18.196Z,0.70
2023-03-14T12:41:04.006Z,0.70
2023-03-14T12:43:35.462Z,0.60
2023-03-14T12:46:25.446Z,0.60
2023-03-14T12:49:09.918Z,0.50
2023-03-14T12:51:46.156Z,0.60
2023-03-14T12:54:37.170Z,0.60
2023-03-14T12:57:51.457Z,0.50
2023-03-14T13:00:35.103Z,0.50
2023-03-14T13:03:23.299Z,0.50
2023-03-14T13:06:02.982Z,0.40
2023-03-14T13:08:45.088Z,0.90
2023-03-14T13:11:22.913Z,0.60
2023-03-14T13:13:58.356Z,0.30
2023-03-14T13:16:28.871Z,0.50
2023-03-14T13:19:24.191Z,0.40
2023-03-14T13:22:04.770Z,0.50
2023-03-14T13:24:35.995Z,0.50
2023-03-14T13:27:04.366Z,0.50
2023-03-14T13:29:33.359Z,0.50
2023-03-14T13:32:19.916Z,0.30
2023-03-14T13:34:49.853Z,0.30
2023-03-14T13:37:24.624Z,0.30
2023-03-14T13:40:00.315Z,0.50
2023-03-14T13:42:30.362Z,0.60
2023-03-14T13:44:58.852Z,0.60
2023-03-14T13:47:28.654Z,0.50
2023-03-14T13:49:59.653Z,0.40
2023-03-14T13:52:39.278Z,0.60
2023-03-14T13:55:17.903Z,0.60
2023-03-14T13:57:56.449Z,0.60
2023-03-14T14:00:28.635Z,0.40
2023-03-14T14:03:01.161Z,0.50
2023-03-14T14:05:33.060Z,0.50
2023-03-14T14:08:05.238Z,0.30
2023-03-14T14:10:33.455Z,0.40
2023-03-14T14:13:10.043Z,0.40
2023-03-14T14:15:45.726Z,0.40
2023-03-14T14:18:22.167Z,0.50
2023-03-14T14:20:52.659Z,0.50
2023-03-14T14:23:30.250Z,0.40
2023-03-14T14:26:09.065Z,0.40
2023-03-14T14:28:39.804Z,0.50
2023-03-14T14:31:17.185Z,0.50
2023-03-14T14:33:59.749Z,0.50
2023-03-14T14:36:39.934Z,0.70
2023-03-14T14:39:22.438Z,0.50
2023-03-14T14:41:53.550Z,0.50
2023-03-14T14:44:37.340Z,0.70
2023-03-14T14:47:07.343Z,0.40
2023-03-14T14:49:36.155Z,0.80
2023-03-14T14:52:14.852Z,0.50
2023-03-14T14:55:20.076Z,0.60
2023-03-14T14:57:55.264Z,0.60
2023-03-14T15:00:28.842Z,0.50
2023-03-14T15:03:01.606Z,0.60
2023-03-14T15:05:36.914Z,0.60
2023-03-14T15:08:11.369Z,0.50
2023-03-14T15:10:41.646Z,0.50
2023-03-14T15:13:09.404Z,0.60
2023-03-14T15:15:39.369Z,0.60
2023-03-14T15:18:19.877Z,0.50
2023-03-14T15:20:48.181Z,0.60
2023-03-14T15:23:19.488Z,0.40
2023-03-14T15:25:55.612Z,0.60
2023-03-14T15:28:31.347Z,0.90
2023-03-14T15:31:00.528Z,0.50
2023-03-14T15:33:29.899Z,0.50
2023-03-14T15:35:58.293Z,0.50
2023-03-14T15:38:26.306Z,0.40
2023-03-14T15:40:55.633Z,0.50
2023-03-14T15:43:26.537Z,0.50
2023-03-14T15:45:54.553Z,0.40
2023-03-14T15:48:23.974Z,0.60
2023-03-14T15:50:51.784Z,0.60
2023-03-14T15:53:20.844Z,0.40
2023-03-14T15:55:48.597Z,0.50
2023-03-14T15:58:21.934Z,0.50
2023-03-14T16:00:51.320Z,0.60
2023-03-14T16:03:19.246Z,0.60
2023-03-14T16:05:48.390Z,0.60
2023-03-14T16:08:17.422Z,0.40
2023-03-14T16:10:48.119Z,0.40
2023-03-14T16:13:20.224Z,0.40
2023-03-14T16:16:03.864Z,0.60
2023-03-14T16:18:35.882Z,0.30
2023-03-14T16:21:13.753Z,0.40
2023-03-14T16:23:42.835Z,0.70
2023-03-14T16:26:16.666Z,0.40
2023-03-14T16:28:46.237Z,0.50
2023-03-14T16:31:21.531Z,0.50
2023-03-14T16:33:50.937Z,0.60
2023-03-14T16:36:21.878Z,0.60
2023-03-14T16:38:50.031Z,0.70
2023-03-14T16:41:21.971Z,0.80
2023-03-14T16:43:56.543Z,0.70
2023-03-14T16:46:28.557Z,0.60
2023-03-14T16:48:57.457Z,1.10
2023-03-14T16:51:25.954Z,0.60
2023-03-14T16:53:54.165Z,0.60
2023-03-14T16:56:23.559Z,0.70
2023-03-14T16:58:51.641Z,0.80
2023-03-14T17:01:19.817Z,0.90
2023-03-14T17:03:50.528Z,0.70
2023-03-14T17:06:28.521Z,0.70
2023-03-14T17:08:59.374Z,0.70
2023-03-14T17:11:27.749Z,0.70
2023-03-14T17:13:55.576Z,0.90
2023-03-14T17:16:26.721Z,0.90
2023-03-14T17:18:55.051Z,0.90
2023-03-14T17:21:24.740Z,1.00
2023-03-14T17:23:53.130Z,0.80
2023-03-14T17:26:21.563Z,0.90
2023-03-14T17:28:49.464Z,0.70
2023-03-14T17:31:20.301Z,0.90
2023-03-14T17:33:48.206Z,0.70
2023-03-14T17:36:18.157Z,0.60
2023-03-14T17:38:47.183Z,1.10
2023-03-14T17:41:16.656Z,0.70
2023-03-14T17:43:46.100Z,0.60
2023-03-14T17:46:16.173Z,0.90
2023-03-14T17:48:46.364Z,0.90
2023-03-14T17:51:16.640Z,0.90
2023-03-14T17:53:44.819Z,1.10
2023-03-14T17:56:12.928Z,1.70
2023-03-14T17:58:43.980Z,1.60
2023-03-14T18:01:16.312Z,1.40
2023-03-14T18:03:46.144Z,0.90
2023-03-14T18:06:17.562Z,0.70
2023-03-14T18:08:47.247Z,0.70
2023-03-14T18:11:16.039Z,0.70
2023-03-14T18:13:45.193Z,0.90
2023-03-14T18:16:14.751Z,1.50
2023-03-14T18:18:48.512Z,1.00
2023-03-14T18:21:18.512Z,1.10
2023-03-14T18:23:48.659Z,1.40
2023-03-14T18:26:18.599Z,1.40
2023-03-14T18:28:47.348Z,1.10
2023-03-14T18:31:18.238Z,0.80
2023-03-14T18:33:48.122Z,1.00
2023-03-14T18:36:17.319Z,0.80
2023-03-14T18:38:49.201Z,0.90
2023-03-14T18:41:20.118Z,0.90
2023-03-14T18:43:48.150Z,1.40
2023-03-14T18:46:16.474Z,1.20
2023-03-14T18:48:44.737Z,1.10
2023-03-14T18:51:16.429Z,1.10
2023-03-14T18:53:46.542Z,0.60
2023-03-14T18:56:15.067Z,0.90
2023-03-14T18:58:44.738Z,0.70
2023-03-14T19:01:13.571Z,2.50
2023-03-14T19:03:42.412Z,2.20
2023-03-14T19:06:12.426Z,2.60
2023-03-14T19:08:45.096Z,2.10
2023-03-14T19:11:14.667Z,2.00
2023-03-14T19:13:43.919Z,1.40
2023-03-14T19:16:15.440Z,1.30
2023-03-14T19:18:43.939Z,1.50
2023-03-14T19:21:14.922Z,2.20
2023-03-14T19:23:49.102Z,4.50
2023-03-14T19:26:18.836Z,3.40
2023-03-14T19:28:54.287Z,3.90
2023-03-14T19:31:23.030Z,3.10
2023-03-14T19:33:50.806Z,2.40
2023-03-14T19:36:31.234Z,2.00
2023-03-14T19:39:03.052Z,1.50
2023-03-14T19:41:31.701Z,1.70
2023-03-14T19:44:02.527Z,2.20
2023-03-14T19:46:33.284Z,1.70
2023-03-14T19:49:03.056Z,2.00
2023-03-14T19:51:31.581Z,2.00
2023-03-14T19:54:03.548Z,1.80
2023-03-14T19:56:33.321Z,1.40
2023-03-14T19:59:05.088Z,2.90
2023-03-14T20:01:35.667Z,2.20
2023-03-14T20:04:04.618Z,2.20
2023-03-14T20:06:34.702Z,2.40
2023-03-14T20:09:06.083Z,2.60
2023-03-14T20:11:35.890Z,2.10
2023-03-14T20:14:09.311Z,1.60
2023-03-14T20:16:39.596Z,10.00
2023-03-14T20:19:11.356Z,5.00
2023-03-14T20:21:39.946Z,3.60
2023-03-14T20:24:08.162Z,2.20
2023-03-14T20:26:37.357Z,1.40
2023-03-14T20:29:07.214Z,1.40
2023-03-14T20:31:38.816Z,0.80
2023-03-14T20:34:08.058Z,1.50
2023-03-14T20:36:35.986Z,1.40
2023-03-14T20:39:05.539Z,1.70
2023-03-14T20:41:33.382Z,1.40
2023-03-14T20:44:01.503Z,1.10
2023-03-14T20:46:29.516Z,1.50
2023-03-14T20:48:58.797Z,1.00
2023-03-14T20:51:26.598Z,1.80
2023-03-14T20:53:54.580Z,1.10
2023-03-14T20:56:23.937Z,1.30
2023-03-14T20:58:52.399Z,1.50
2023-03-14T21:04:06.871Z,1.40
2023-03-14T21:06:36.254Z,1.30
2023-03-14T21:09:08.422Z,1.20
2023-03-14T21:11:37.256Z,1.10
2023-03-14T21:14:05.176Z,1.20
2023-03-14T21:16:33.067Z,1.10
2023-03-14T21:19:01.339Z,1.30
2023-03-14T21:21:29.483Z,0.90
2023-03-14T21:23:58.399Z,1.40
2023-03-14T21:26:26.816Z,1.70
2023-03-14T21:28:58.739Z,1.90
2023-03-14T21:31:27.982Z,1.70
2023-03-14T21:33:59.881Z,2.20
2023-03-14T21:36:27.726Z,4.10
2023-03-14T21:38:58.269Z,3.50
2023-03-14T21:41:29.282Z,3.60
2023-03-14T21:43:59.105Z,2.50
2023-03-14T21:46:28.996Z,1.80
2023-03-14T21:48:58.315Z,2.00
2023-03-14T21:51:30.756Z,1.50
2023-03-14T21:54:01.554Z,1.50
2023-03-14T21:56:29.375Z,1.90
2023-03-14T21:59:00.112Z,1.40
2023-03-14T22:01:27.882Z,2.30
2023-03-14T22:04:00.449Z,2.50
2023-03-14T22:06:30.012Z,2.30
2023-03-14T22:08:59.214Z,1.90
2023-03-14T22:11:27.422Z,2.60
2023-03-14T22:13:56.851Z,3.10
2023-03-14T22:16:25.663Z,2.90
2023-03-14T22:18:54.017Z,3.00
2023-03-14T22:21:22.033Z,3.30
2023-03-14T22:23:50.018Z,2.50
2023-03-14T22:26:18.744Z,2.30
2023-03-14T22:28:47.290Z,2.10
2023-03-14T22:31:15.792Z,1.70
2023-03-14T22:33:46.610Z,2.00
2023-03-14T22:36:14.428Z,1.40
2023-03-14T22:38:42.283Z,1.50
2023-03-14T22:41:10.538Z,2.60
2023-03-14T22:43:39.634Z,1.60
2023-03-14T22:46:09.665Z,1.90
2023-03-14T22:48:39.341Z,1.70
2023-03-14T22:51:11.641Z,1.50
2023-03-14T22:53:42.370Z,1.90
2023-03-14T22:56:12.983Z,1.90
2023-03-14T22:58:42.100Z,2.50
2023-03-14T23:01:10.060Z,2.50
2023-03-14T23:03:38.379Z,2.70
2023-03-14T23:06:08.030Z,2.10
2023-03-14T23:08:38.144Z,1.30
2023-03-14T23:11:06.855Z,1.50
2023-03-14T23:13:38.947Z,1.40
2023-03-14T23:16:10.075Z,1.50
2023-03-14T23:18:42.751Z,0.80
2023-03-14T23:21:22.659Z,1.00
2023-03-14T23:23:52.915Z,1.30
2023-03-14T23:26:25.854Z,1.20
2023-03-14T23:28:58.939Z,1.60
2023-03-14T23:31:26.830Z,2.20
2023-03-14T23:33:54.538Z,2.00
2023-03-14T23:36:23.313Z,2.60
2023-03-14T23:38:51.208Z,1.10
2023-03-14T23:41:19.393Z,0.90
2023-03-14T23:43:49.306Z,0.70
2023-03-14T23:46:18.133Z,0.80
2023-03-14T23:48:49.059Z,1.20
2023-03-14T23:51:17.845Z,1.10
2023-03-14T23:53:45.826Z,1.20
2023-03-14T23:56:17.381Z,0.80
2023-03-14T23:58:46.190Z,0.90
